Deschaillons-Sur-Saint-Laurent, Canada
Current Conditions -  °F | °C
As of 9:00 AM on Friday 24 Oct 2014 (Local Time) from CYRQ Reporting Station
Overcast Overcast  
Wind Chill: 39°   Ceiling: 4700
Heat Index: 43°   Visibility: 9mi
Dew Point: 41°   Wind: 6mph
Humidity: 93%   Direction: 50°NE
Pressure: 29.9"   Gusts: NA
Location:  46.55°N, 72.12°W
Report Text: CYRQ 241300Z AUTO 05005KT 9SM OVC047 06/05 A2990 RMK SLP128
Loading
Personal Weather Stations






























Interactive Weather Map New forecast layout! Learn more

10-Day Weather Forecast

Advertisements
Track Severe Weather on mobile